Artemis — SWZE — position and weather

sailwx.info

Track history (hours):
 
Tides and Currents Weather Stations Pressure Air Temp Water Temp Dewpoint Dewpoint Depression Visibility Wind Speed Wind Dir Waves Ship Positions

Artemis

Last reported at 2014-Aug-19 09:22 UTC. Time now 2014-Sep-03 07:26 UTC.
Position N 37°57' E 023°33'.
Warning: this ship's position is 14 days out of date.

Length 89 m; draft 3.1 m.

Type: Passenger vessel. MMSI: 237026300.

Date/timePositionNaut miles runAvg speedWind from/ knotsBaromVisibWave heightAir tempDewpointWater temp
2014-Aug-19 09:22N 37°57' E 023°33'4 2.5
2014-Aug-19 07:34N 37°57' E 023°38'0 0.0
2014-Aug-19 06:34N 37°57' E 023°38'0 0.0
2014-Aug-19 05:34N 37°57' E 023°38'0 0.0
2014-Aug-19 04:33N 37°57' E 023°38'0 0.0
2014-Aug-19 03:34N 37°57' E 023°38'0 0.0
2014-Aug-19 02:34N 37°57' E 023°38'0 0.0
2014-Aug-19 01:34N 37°57' E 023°38'0 0.0
2014-Aug-19 00:31N 37°57' E 023°38'0 0.0
2014-Aug-18 23:30N 37°57' E 023°38'0 0.0
2014-Aug-18 22:34N 37°57' E 023°38'0 0.0
2014-Aug-18 21:34N 37°57' E 023°38'0 0.0
2014-Aug-18 20:34N 37°57' E 023°38'0 0.0
2014-Aug-18 19:34N 37°57' E 023°38'0 0.0
2014-Aug-18 18:34N 37°57' E 023°38'0 0.0
2014-Aug-18 17:33N 37°57' E 023°38'0 0.0
2014-Aug-18 16:33N 37°57' E 023°38'1413.6
2014-Aug-18 15:33N 37°47' E 023°26'6 5.0
2014-Aug-18 14:26N 37°42' E 023°22'3 3.5
2014-Aug-18 13:33N 37°45' E 023°25'1514.7
2014-Aug-18 12:33N 37°56' E 023°37'2 1.6
2014-Aug-18 11:33N 37°57' E 023°38'2 2.1
2014-Aug-18 10:33N 37°56' E 023°36'1410.7
2014-Aug-18 09:16N 37°45' E 023°25'3 4.8
2014-Aug-18 08:33N 37°42' E 023°22'4 4.3
2014-Aug-18 07:34N 37°46' E 023°25'1514.8
2014-Aug-18 06:34N 37°57' E 023°38'5 0.4
2014-Aug-17 17:33N 37°53' E 023°34'1111.1
2014-Aug-17 16:33N 37°44' E 023°25'10 8.7
2014-Aug-17 15:25N 37°34' E 023°24'3 0.5
2014-Aug-17 09:19N 37°37' E 023°25'8 9.6
2014-Aug-17 08:32N 37°45' E 023°25'1212.8
2014-Aug-17 07:34N 37°54' E 023°36'3 3.3
2014-Aug-17 06:33N 37°57' E 023°39'0 0.0
2014-Aug-17 05:33N 37°57' E 023°39'0 0.0
2014-Aug-17 04:33N 37°57' E 023°39'0 0.0
2014-Aug-17 03:33N 37°57' E 023°39'0 0.0
2014-Aug-17 02:33N 37°57' E 023°39'0 0.0
2014-Aug-17 01:33N 37°57' E 023°39'0 0.0
2014-Aug-17 00:33N 37°57' E 023°39'0 0.0
2014-Aug-16 23:33N 37°57' E 023°39'0 0.0
2014-Aug-16 22:33N 37°57' E 023°39'0 0.0
2014-Aug-16 21:33N 37°57' E 023°39'0 0.0
2014-Aug-16 20:33N 37°57' E 023°39'0 0.0
2014-Aug-16 19:33N 37°57' E 023°39'2 1.8
2014-Aug-16 18:34N 37°56' E 023°36'1414.2
2014-Aug-16 17:34N 37°45' E 023°25'4 3.6
2014-Aug-16 16:33N 37°48' E 023°28'1212.2
2014-Aug-16 15:33N 37°57' E 023°39'0 0.0
2014-Aug-16 14:33N 37°57' E 023°39'0 0.0
2014-Aug-16 13:33N 37°57' E 023°39'0 0.0
2014-Aug-16 12:33N 37°57' E 023°39'0 0.0
2014-Aug-16 11:33N 37°57' E 023°39'0 0.0
2014-Aug-16 10:33N 37°57' E 023°39'0 0.0
2014-Aug-16 09:33N 37°57' E 023°39'0 0.0
2014-Aug-16 08:33N 37°57' E 023°39'0 0.0
2014-Aug-16 07:33N 37°57' E 023°39'0 0.0
2014-Aug-16 06:33N 37°57' E 023°39'9 9.1
2014-Aug-16 05:33N 37°50' E 023°31'9 9.4
2014-Aug-16 04:33N 37°42' E 023°25'6 0.6
2014-Aug-15 17:32N 37°35' E 023°25'1111.6
2014-Aug-15 16:33N 37°47' E 023°25'1414.4
2014-Aug-15 15:33N 37°57' E 023°38'0 0.0
2014-Aug-15 14:33N 37°57' E 023°39'0 0.0
2014-Aug-15 13:33N 37°57' E 023°39'0 0.0
2014-Aug-15 12:33N 37°57' E 023°39'0 0.0
2014-Aug-15 11:33N 37°57' E 023°39'0 0.0
2014-Aug-15 10:33N 37°57' E 023°39'0 0.0
2014-Aug-15 09:31N 37°57' E 023°39'0 0.0
2014-Aug-15 08:33N 37°57' E 023°39'0 0.0
2014-Aug-15 07:33N 37°57' E 023°39'0 0.0
2014-Aug-15 06:33N 37°57' E 023°39'0 0.0
2014-Aug-15 05:33N 37°57' E 023°39'0 0.0
2014-Aug-15 04:33N 37°57' E 023°39'0 0.0
2014-Aug-15 03:33N 37°57' E 023°39'0 0.0
2014-Aug-15 02:33N 37°57' E 023°39'0 0.0
2014-Aug-15 01:33N 37°57' E 023°39'0 0.0
2014-Aug-15 00:33N 37°57' E 023°39'0 0.0
2014-Aug-14 23:33N 37°57' E 023°39'0 0.0
2014-Aug-14 22:33N 37°57' E 023°39'0 0.0
2014-Aug-14 21:33N 37°57' E 023°39'0 0.0
2014-Aug-14 20:33N 37°57' E 023°39'0 0.0
2014-Aug-14 19:33N 37°57' E 023°39'0 0.0
2014-Aug-14 18:33N 37°57' E 023°39'0 0.0
2014-Aug-14 17:33N 37°57' E 023°39'6 6.4
2014-Aug-14 16:33N 37°52' E 023°33'10 9.9
2014-Aug-14 15:33N 37°44' E 023°25'1313.4
2014-Aug-14 14:33N 37°55' E 023°36'3 2.8
2014-Aug-14 13:33N 37°57' E 023°38'0 0.0
2014-Aug-14 12:34N 37°57' E 023°38'0 0.0
2014-Aug-14 11:33N 37°57' E 023°38'0 0.0
2014-Aug-14 10:34N 37°57' E 023°38'0 0.0
2014-Aug-14 09:34N 37°57' E 023°38'0 0.0
2014-Aug-14 08:34N 37°57' E 023°38'0 0.0
2014-Aug-14 07:33N 37°57' E 023°38'0 0.0
2014-Aug-14 06:33N 37°57' E 023°38'0 0.0
2014-Aug-14 05:34N 37°57' E 023°38'0 0.0
2014-Aug-14 04:33N 37°57' E 023°38'0 0.0
2014-Aug-14 03:34N 37°57' E 023°38'0 0.0
2014-Aug-14 02:34N 37°57' E 023°38'0 0.0
2014-Aug-14 01:34N 37°57' E 023°38'0 0.0
2014-Aug-14 00:34N 37°57' E 023°38'0 0.0
2014-Aug-13 23:33N 37°57' E 023°38'0 0.0
2014-Aug-13 22:34N 37°57' E 023°38'0 0.0
2014-Aug-13 21:34N 37°57' E 023°38'0 0.0
2014-Aug-13 20:33N 37°57' E 023°38'0 0.0
2014-Aug-13 19:34N 37°57' E 023°38'0 0.0
2014-Aug-13 18:34N 37°57' E 023°38'0 0.0
2014-Aug-13 17:34N 37°57' E 023°38'0 0.0
2014-Aug-13 16:34N 37°57' E 023°38'1312.9
2014-Aug-13 15:34N 37°47' E 023°27'6 6.3
2014-Aug-13 14:33N 37°42' E 023°22'3 3.1
2014-Aug-13 13:34N 37°45' E 023°25'1414.4
2014-Aug-13 12:34N 37°56' E 023°37'2 1.7
2014-Aug-13 11:33N 37°57' E 023°39'0 0.0
2014-Aug-13 10:33N 37°57' E 023°39'0 0.0
2014-Aug-13 09:33N 37°57' E 023°39'0 0.0
2014-Aug-13 08:33N 37°57' E 023°39'0 0.0
2014-Aug-13 07:33N 37°57' E 023°39'0 0.0
2014-Aug-13 06:33N 37°57' E 023°39'1211.6
2014-Aug-13 05:33N 37°48' E 023°28'7 7.0
2014-Aug-13 04:33N 37°42' E 023°25'11 1.1
2014-Aug-12 18:07N 37°30' E 023°26'610.2
2014-Aug-12 17:30N 37°37' E 023°25'910.1
2014-Aug-12 16:34N 37°46' E 023°25'1514.8
2014-Aug-12 15:33N 37°57' E 023°38'0 0.1
2014-Aug-12 14:33N 37°57' E 023°39'0 0.0
2014-Aug-12 13:33N 37°57' E 023°39'0 0.0
2014-Aug-12 12:33N 37°57' E 023°39'0 0.0
2014-Aug-12 11:33N 37°57' E 023°39'0 0.0
2014-Aug-12 10:33N 37°57' E 023°39'0 0.0
2014-Aug-12 09:33N 37°57' E 023°39'0 0.0
2014-Aug-12 08:33N 37°57' E 023°39'0 0.0
2014-Aug-12 07:33N 37°57' E 023°39'0 0.1
2014-Aug-12 06:34N 37°57' E 023°38'1414.0
2014-Aug-12 05:33N 37°47' E 023°26'6 5.8
2014-Aug-12 04:33N 37°41' E 023°25'11 1.0
2014-Aug-11 18:09N 37°30' E 023°27'6 9.0
2014-Aug-11 17:31N 37°36' E 023°25'1010.7
2014-Aug-11 16:33N 37°46' E 023°25'1514.9
2014-Aug-11 15:33N 37°57' E 023°38'0 0.3
2014-Aug-11 14:33N 37°57' E 023°38'1312.7
2014-Aug-11 13:33N 37°48' E 023°27'3 2.9
2014-Aug-11 12:34N 37°46' E 023°25'1514.9
2014-Aug-11 11:32N 37°56' E 023°38'0 0.4
2014-Aug-11 10:33N 37°57' E 023°38'0 0.0
2014-Aug-11 09:33N 37°57' E 023°38'0 0.0
2014-Aug-11 08:33N 37°57' E 023°38'0 0.0
2014-Aug-11 07:33N 37°57' E 023°38'0 0.0
2014-Aug-11 06:33N 37°57' E 023°38'0 0.0
2014-Aug-11 05:33N 37°57' E 023°38'0 0.0
2014-Aug-11 04:33N 37°57' E 023°38'0 0.0
2014-Aug-11 03:33N 37°57' E 023°38'0 0.0
2014-Aug-11 02:33N 37°57' E 023°38'0 0.0
2014-Aug-11 01:33N 37°57' E 023°38'0 0.0
2014-Aug-11 00:33N 37°57' E 023°38'0 0.0
2014-Aug-10 23:33N 37°57' E 023°38'0 0.0
2014-Aug-10 22:33N 37°57' E 023°38'0 0.0
2014-Aug-10 21:33N 37°57' E 023°38'0 0.0
2014-Aug-10 20:33N 37°57' E 023°38'0 0.0
2014-Aug-10 19:33N 37°57' E 023°38'0 0.0
2014-Aug-10 18:33N 37°57' E 023°38'4 4.4
2014-Aug-10 17:33N 37°54' E 023°35'1111.1
2014-Aug-10 16:32N 37°45' E 023°25'10 9.2
2014-Aug-10 15:24N 37°34' E 023°24'2 0.3
2014-Aug-10 09:20N 37°36' E 023°25'911.2
2014-Aug-10 08:32N 37°45' E 023°25'1313.1
2014-Aug-10 07:33N 37°55' E 023°36'3 3.1
2014-Aug-10 06:33N 37°57' E 023°39'0 0.0
2014-Aug-10 05:34N 37°57' E 023°39'0 0.0
2014-Aug-10 04:33N 37°57' E 023°39'0 0.0
2014-Aug-10 03:33N 37°57' E 023°39'0 0.0
2014-Aug-10 02:33N 37°57' E 023°39'0 0.0
2014-Aug-10 01:33N 37°57' E 023°39'0 0.0
2014-Aug-10 00:33N 37°57' E 023°39'0 0.0
2014-Aug-09 23:33N 37°57' E 023°39'0 0.0
2014-Aug-09 22:33N 37°57' E 023°39'0 0.0
2014-Aug-09 21:33N 37°57' E 023°39'0 0.0
2014-Aug-09 20:33N 37°57' E 023°39'0 0.0
2014-Aug-09 19:33N 37°57' E 023°39'0 0.2
2014-Aug-09 18:33N 37°57' E 023°38'1312.8
2014-Aug-09 17:33N 37°47' E 023°27'0 0.1
2014-Aug-09 16:34N 37°47' E 023°27'1312.9
2014-Aug-09 15:33N 37°57' E 023°39'0 0.0
2014-Aug-09 14:33N 37°57' E 023°39'0 0.0
2014-Aug-09 13:33N 37°57' E 023°39'0 0.0
2014-Aug-09 12:33N 37°57' E 023°39'0 0.0
2014-Aug-09 11:33N 37°57' E 023°39'0 0.0
2014-Aug-09 10:33N 37°57' E 023°39'0 0.0
2014-Aug-09 09:33N 37°57' E 023°39'  
Track history (hours):
 
Tides and Currents Weather Stations Pressure Air Temp Water Temp Dewpoint Dewpoint Depression Visibility Wind Speed Wind Dir Waves Ship Positions

Artemis

Last reported at 2014-Aug-19 09:22 UTC. Time now 2014-Sep-03 07:26 UTC.
Position N 37°57' E 023°33'.
Warning: this ship's position is 14 days out of date.

Length 89 m; draft 3.1 m.

Type: Passenger vessel. MMSI: 237026300.

Date/timePositionNaut miles runAvg speedWind from/ knotsBaromVisibWave heightAir tempDewpointWater temp
2014-Aug-19 09:22N 37°57' E 023°33'4 2.5
2014-Aug-19 07:34N 37°57' E 023°38'0 0.0
2014-Aug-19 06:34N 37°57' E 023°38'0 0.0
2014-Aug-19 05:34N 37°57' E 023°38'0 0.0
2014-Aug-19 04:33N 37°57' E 023°38'0 0.0
2014-Aug-19 03:34N 37°57' E 023°38'0 0.0
2014-Aug-19 02:34N 37°57' E 023°38'0 0.0
2014-Aug-19 01:34N 37°57' E 023°38'0 0.0
2014-Aug-19 00:31N 37°57' E 023°38'0 0.0
2014-Aug-18 23:30N 37°57' E 023°38'0 0.0
2014-Aug-18 22:34N 37°57' E 023°38'0 0.0
2014-Aug-18 21:34N 37°57' E 023°38'0 0.0
2014-Aug-18 20:34N 37°57' E 023°38'0 0.0
2014-Aug-18 19:34N 37°57' E 023°38'0 0.0
2014-Aug-18 18:34N 37°57' E 023°38'0 0.0
2014-Aug-18 17:33N 37°57' E 023°38'0 0.0
2014-Aug-18 16:33N 37°57' E 023°38'1413.6
2014-Aug-18 15:33N 37°47' E 023°26'6 5.0
2014-Aug-18 14:26N 37°42' E 023°22'3 3.5
2014-Aug-18 13:33N 37°45' E 023°25'1514.7
2014-Aug-18 12:33N 37°56' E 023°37'2 1.6
2014-Aug-18 11:33N 37°57' E 023°38'2 2.1
2014-Aug-18 10:33N 37°56' E 023°36'1410.7
2014-Aug-18 09:16N 37°45' E 023°25'3 4.8
2014-Aug-18 08:33N 37°42' E 023°22'4 4.3
2014-Aug-18 07:34N 37°46' E 023°25'1514.8
2014-Aug-18 06:34N 37°57' E 023°38'5 0.4
2014-Aug-17 17:33N 37°53' E 023°34'1111.1
2014-Aug-17 16:33N 37°44' E 023°25'10 8.7
2014-Aug-17 15:25N 37°34' E 023°24'3 0.5
2014-Aug-17 09:19N 37°37' E 023°25'8 9.6
2014-Aug-17 08:32N 37°45' E 023°25'1212.8
2014-Aug-17 07:34N 37°54' E 023°36'3 3.3
2014-Aug-17 06:33N 37°57' E 023°39'0 0.0
2014-Aug-17 05:33N 37°57' E 023°39'0 0.0
2014-Aug-17 04:33N 37°57' E 023°39'0 0.0
2014-Aug-17 03:33N 37°57' E 023°39'0 0.0
2014-Aug-17 02:33N 37°57' E 023°39'0 0.0
2014-Aug-17 01:33N 37°57' E 023°39'0 0.0
2014-Aug-17 00:33N 37°57' E 023°39'0 0.0
2014-Aug-16 23:33N 37°57' E 023°39'0 0.0
2014-Aug-16 22:33N 37°57' E 023°39'0 0.0
2014-Aug-16 21:33N 37°57' E 023°39'0 0.0
2014-Aug-16 20:33N 37°57' E 023°39'0 0.0
2014-Aug-16 19:33N 37°57' E 023°39'2 1.8
2014-Aug-16 18:34N 37°56' E 023°36'1414.2
2014-Aug-16 17:34N 37°45' E 023°25'4 3.6
2014-Aug-16 16:33N 37°48' E 023°28'1212.2
2014-Aug-16 15:33N 37°57' E 023°39'0 0.0
2014-Aug-16 14:33N 37°57' E 023°39'0 0.0
2014-Aug-16 13:33N 37°57' E 023°39'0 0.0
2014-Aug-16 12:33N 37°57' E 023°39'0 0.0
2014-Aug-16 11:33N 37°57' E 023°39'0 0.0
2014-Aug-16 10:33N 37°57' E 023°39'0 0.0
2014-Aug-16 09:33N 37°57' E 023°39'0 0.0
2014-Aug-16 08:33N 37°57' E 023°39'0 0.0
2014-Aug-16 07:33N 37°57' E 023°39'0 0.0
2014-Aug-16 06:33N 37°57' E 023°39'9 9.1
2014-Aug-16 05:33N 37°50' E 023°31'9 9.4
2014-Aug-16 04:33N 37°42' E 023°25'6 0.6
2014-Aug-15 17:32N 37°35' E 023°25'1111.6
2014-Aug-15 16:33N 37°47' E 023°25'1414.4
2014-Aug-15 15:33N 37°57' E 023°38'0 0.0
2014-Aug-15 14:33N 37°57' E 023°39'0 0.0
2014-Aug-15 13:33N 37°57' E 023°39'0 0.0
2014-Aug-15 12:33N 37°57' E 023°39'0 0.0
2014-Aug-15 11:33N 37°57' E 023°39'0 0.0
2014-Aug-15 10:33N 37°57' E 023°39'0 0.0
2014-Aug-15 09:31N 37°57' E 023°39'0 0.0
2014-Aug-15 08:33N 37°57' E 023°39'0 0.0
2014-Aug-15 07:33N 37°57' E 023°39'0 0.0
2014-Aug-15 06:33N 37°57' E 023°39'0 0.0
2014-Aug-15 05:33N 37°57' E 023°39'0 0.0
2014-Aug-15 04:33N 37°57' E 023°39'0 0.0
2014-Aug-15 03:33N 37°57' E 023°39'0 0.0
2014-Aug-15 02:33N 37°57' E 023°39'0 0.0
2014-Aug-15 01:33N 37°57' E 023°39'0 0.0
2014-Aug-15 00:33N 37°57' E 023°39'0 0.0
2014-Aug-14 23:33N 37°57' E 023°39'0 0.0
2014-Aug-14 22:33N 37°57' E 023°39'0 0.0
2014-Aug-14 21:33N 37°57' E 023°39'0 0.0
2014-Aug-14 20:33N 37°57' E 023°39'0 0.0
2014-Aug-14 19:33N 37°57' E 023°39'0 0.0
2014-Aug-14 18:33N 37°57' E 023°39'0 0.0
2014-Aug-14 17:33N 37°57' E 023°39'6 6.4
2014-Aug-14 16:33N 37°52' E 023°33'10 9.9
2014-Aug-14 15:33N 37°44' E 023°25'1313.4
2014-Aug-14 14:33N 37°55' E 023°36'3 2.8
2014-Aug-14 13:33N 37°57' E 023°38'0 0.0
2014-Aug-14 12:34N 37°57' E 023°38'0 0.0
2014-Aug-14 11:33N 37°57' E 023°38'0 0.0
2014-Aug-14 10:34N 37°57' E 023°38'0 0.0
2014-Aug-14 09:34N 37°57' E 023°38'0 0.0
2014-Aug-14 08:34N 37°57' E 023°38'0 0.0
2014-Aug-14 07:33N 37°57' E 023°38'0 0.0
2014-Aug-14 06:33N 37°57' E 023°38'0 0.0
2014-Aug-14 05:34N 37°57' E 023°38'0 0.0
2014-Aug-14 04:33N 37°57' E 023°38'0 0.0
2014-Aug-14 03:34N 37°57' E 023°38'0 0.0
2014-Aug-14 02:34N 37°57' E 023°38'0 0.0
2014-Aug-14 01:34N 37°57' E 023°38'0 0.0
2014-Aug-14 00:34N 37°57' E 023°38'0 0.0
2014-Aug-13 23:33N 37°57' E 023°38'0 0.0
2014-Aug-13 22:34N 37°57' E 023°38'0 0.0
2014-Aug-13 21:34N 37°57' E 023°38'0 0.0
2014-Aug-13 20:33N 37°57' E 023°38'0 0.0
2014-Aug-13 19:34N 37°57' E 023°38'0 0.0
2014-Aug-13 18:34N 37°57' E 023°38'0 0.0
2014-Aug-13 17:34N 37°57' E 023°38'0 0.0
2014-Aug-13 16:34N 37°57' E 023°38'1312.9
2014-Aug-13 15:34N 37°47' E 023°27'6 6.3
2014-Aug-13 14:33N 37°42' E 023°22'3 3.1
2014-Aug-13 13:34N 37°45' E 023°25'1414.4
2014-Aug-13 12:34N 37°56' E 023°37'2 1.7
2014-Aug-13 11:33N 37°57' E 023°39'0 0.0
2014-Aug-13 10:33N 37°57' E 023°39'0 0.0
2014-Aug-13 09:33N 37°57' E 023°39'0 0.0
2014-Aug-13 08:33N 37°57' E 023°39'0 0.0
2014-Aug-13 07:33N 37°57' E 023°39'0 0.0
2014-Aug-13 06:33N 37°57' E 023°39'1211.6
2014-Aug-13 05:33N 37°48' E 023°28'7 7.0
2014-Aug-13 04:33N 37°42' E 023°25'11 1.1
2014-Aug-12 18:07N 37°30' E 023°26'610.2
2014-Aug-12 17:30N 37°37' E 023°25'910.1
2014-Aug-12 16:34N 37°46' E 023°25'1514.8
2014-Aug-12 15:33N 37°57' E 023°38'0 0.1
2014-Aug-12 14:33N 37°57' E 023°39'0 0.0
2014-Aug-12 13:33N 37°57' E 023°39'0 0.0
2014-Aug-12 12:33N 37°57' E 023°39'0 0.0
2014-Aug-12 11:33N 37°57' E 023°39'0 0.0
2014-Aug-12 10:33N 37°57' E 023°39'0 0.0
2014-Aug-12 09:33N 37°57' E 023°39'0 0.0
2014-Aug-12 08:33N 37°57' E 023°39'0 0.0
2014-Aug-12 07:33N 37°57' E 023°39'0 0.1
2014-Aug-12 06:34N 37°57' E 023°38'1414.0
2014-Aug-12 05:33N 37°47' E 023°26'6 5.8
2014-Aug-12 04:33N 37°41' E 023°25'11 1.0
2014-Aug-11 18:09N 37°30' E 023°27'6 9.0
2014-Aug-11 17:31N 37°36' E 023°25'1010.7
2014-Aug-11 16:33N 37°46' E 023°25'1514.9
2014-Aug-11 15:33N 37°57' E 023°38'0 0.3
2014-Aug-11 14:33N 37°57' E 023°38'1312.7
2014-Aug-11 13:33N 37°48' E 023°27'3 2.9
2014-Aug-11 12:34N 37°46' E 023°25'1514.9
2014-Aug-11 11:32N 37°56' E 023°38'0 0.4
2014-Aug-11 10:33N 37°57' E 023°38'0 0.0
2014-Aug-11 09:33N 37°57' E 023°38'0 0.0
2014-Aug-11 08:33N 37°57' E 023°38'0 0.0
2014-Aug-11 07:33N 37°57' E 023°38'0 0.0
2014-Aug-11 06:33N 37°57' E 023°38'0 0.0
2014-Aug-11 05:33N 37°57' E 023°38'0 0.0
2014-Aug-11 04:33N 37°57' E 023°38'0 0.0
2014-Aug-11 03:33N 37°57' E 023°38'0 0.0
2014-Aug-11 02:33N 37°57' E 023°38'0 0.0
2014-Aug-11 01:33N 37°57' E 023°38'0 0.0
2014-Aug-11 00:33N 37°57' E 023°38'0 0.0
2014-Aug-10 23:33N 37°57' E 023°38'0 0.0
2014-Aug-10 22:33N 37°57' E 023°38'0 0.0
2014-Aug-10 21:33N 37°57' E 023°38'0 0.0
2014-Aug-10 20:33N 37°57' E 023°38'0 0.0
2014-Aug-10 19:33N 37°57' E 023°38'0 0.0
2014-Aug-10 18:33N 37°57' E 023°38'4 4.4
2014-Aug-10 17:33N 37°54' E 023°35'1111.1
2014-Aug-10 16:32N 37°45' E 023°25'10 9.2
2014-Aug-10 15:24N 37°34' E 023°24'2 0.3
2014-Aug-10 09:20N 37°36' E 023°25'911.2
2014-Aug-10 08:32N 37°45' E 023°25'1313.1
2014-Aug-10 07:33N 37°55' E 023°36'3 3.1
2014-Aug-10 06:33N 37°57' E 023°39'0 0.0
2014-Aug-10 05:34N 37°57' E 023°39'0 0.0
2014-Aug-10 04:33N 37°57' E 023°39'0 0.0
2014-Aug-10 03:33N 37°57' E 023°39'0 0.0
2014-Aug-10 02:33N 37°57' E 023°39'0 0.0
2014-Aug-10 01:33N 37°57' E 023°39'0 0.0
2014-Aug-10 00:33N 37°57' E 023°39'0 0.0
2014-Aug-09 23:33N 37°57' E 023°39'0 0.0
2014-Aug-09 22:33N 37°57' E 023°39'0 0.0
2014-Aug-09 21:33N 37°57' E 023°39'0 0.0
2014-Aug-09 20:33N 37°57' E 023°39'0 0.0
2014-Aug-09 19:33N 37°57' E 023°39'0 0.2
2014-Aug-09 18:33N 37°57' E 023°38'1312.8
2014-Aug-09 17:33N 37°47' E 023°27'0 0.1
2014-Aug-09 16:34N 37°47' E 023°27'1312.9
2014-Aug-09 15:33N 37°57' E 023°39'0 0.0
2014-Aug-09 14:33N 37°57' E 023°39'0 0.0
2014-Aug-09 13:33N 37°57' E 023°39'0 0.0
2014-Aug-09 12:33N 37°57' E 023°39'0 0.0
2014-Aug-09 11:33N 37°57' E 023°39'0 0.0
2014-Aug-09 10:33N 37°57' E 023°39'0 0.0
2014-Aug-09 09:33N 37°57' E 023°39'  

Dump ship's entire track history